KTOL/TOL METAR and TAF weather

Enter ICAO airport designator
Station Type Date Time Source
KTOL METAR 2024/04/15 09:52 UTC NOAA

KTOL 150952Z 04008KT 10SM CLR 10/05 A2987 RMK AO2 SLP112 T01000050 $


Station Type Date Time Source
KTOL Decoded METAR 2024/04/15 09:52 UTC NOAA

TOLEDO EXPRESS AIRPORT, OH, United States (KTOL) 41-35N 083-48W 210M
Apr 15, 2024 - 05:52 AM EDT / 2024.04.15 0952 UTC
Wind: from the NE (040 degrees) at 9 MPH (8 KT):0
Visibility: 10 mile(s):0
Sky conditions: clear
Temperature: 50.0 F (10.0 C)
Dew Point: 41.0 F (5.0 C)
Relative Humidity: 71%
Pressure (altimeter): 29.87 in. Hg (1011 hPa)
ob: KTOL 150952Z 04008KT 10SM CLR 10/05 A2987 RMK AO2 SLP112 T01000050
cycle: 10

Station Type Date Time Source
KTOL TAF 2024/04/15 06:39 UTC NOAA